createdAt,value
2018-01-15T00:00:35.507Z,1.83
2018-01-15T00:01:35.511Z,1.79
2018-01-15T00:02:35.510Z,1.68
2018-01-15T00:03:35.510Z,1.70
2018-01-15T00:04:35.519Z,1.67
2018-01-15T00:05:35.522Z,1.72
2018-01-15T00:06:35.524Z,1.72
2018-01-15T00:07:35.529Z,1.75
2018-01-15T00:08:35.532Z,1.77
2018-01-15T00:09:35.537Z,1.79
2018-01-15T00:10:35.650Z,1.79
2018-01-15T00:11:35.542Z,1.68
2018-01-15T00:12:35.548Z,1.70
2018-01-15T00:13:35.552Z,1.71
2018-01-15T00:14:35.552Z,1.64
2018-01-15T00:15:35.662Z,1.61
2018-01-15T00:16:35.558Z,1.67
2018-01-15T00:17:35.562Z,1.53
2018-01-15T00:18:35.566Z,1.61
2018-01-15T00:19:35.571Z,1.68
2018-01-15T00:20:35.582Z,1.61
2018-01-15T00:21:35.577Z,1.52
2018-01-15T00:22:35.588Z,1.56
2018-01-15T00:23:35.583Z,1.54
2018-01-15T00:24:35.587Z,1.56
2018-01-15T00:25:35.597Z,1.50
2018-01-15T00:26:35.596Z,1.52
2018-01-15T00:27:35.607Z,1.68
2018-01-15T00:28:35.641Z,1.61
2018-01-15T00:29:35.606Z,1.65
2018-01-15T00:30:35.614Z,1.65
2018-01-15T00:31:35.612Z,1.72
2018-01-15T00:32:35.619Z,1.70
2018-01-15T00:33:35.620Z,1.72
2018-01-15T00:34:35.625Z,1.71
2018-01-15T00:35:35.632Z,1.65
2018-01-15T00:36:35.632Z,1.74
2018-01-15T00:37:35.689Z,1.77
2018-01-15T00:38:35.639Z,1.65
2018-01-15T00:39:35.646Z,1.72
2018-01-15T00:40:35.651Z,1.67
2018-01-15T00:41:35.647Z,1.67
2018-01-15T00:42:35.655Z,1.68
2018-01-15T00:43:35.661Z,1.67
2018-01-15T00:44:35.663Z,1.67
2018-01-15T00:45:35.671Z,1.71
2018-01-15T00:46:35.668Z,1.72
2018-01-15T00:47:35.673Z,1.68
2018-01-15T00:48:35.678Z,1.67
2018-01-15T00:49:35.695Z,1.71
2018-01-15T00:50:35.687Z,1.67
2018-01-15T00:51:35.686Z,1.65
2018-01-15T00:52:35.693Z,1.68
2018-01-15T00:53:35.693Z,1.67
2018-01-15T00:54:35.705Z,1.71
2018-01-15T00:55:35.697Z,1.65
2018-01-15T00:56:35.705Z,1.65
2018-01-15T00:57:35.707Z,1.65
2018-01-15T00:58:35.721Z,1.65
2018-01-15T00:59:35.718Z,1.61
2018-01-15T01:00:35.739Z,1.71
2018-01-15T01:01:35.721Z,1.65
2018-01-15T01:02:35.725Z,1.67
2018-01-15T01:03:35.733Z,1.56
2018-01-15T01:04:35.727Z,1.60
2018-01-15T01:05:35.740Z,1.56
2018-01-15T01:06:35.734Z,1.70
2018-01-15T01:07:35.745Z,1.60
2018-01-15T01:08:35.746Z,1.67
2018-01-15T01:09:36.287Z,1.50
2018-01-15T01:10:35.750Z,1.53
2018-01-15T01:11:35.762Z,1.57
2018-01-15T01:12:35.846Z,1.60
2018-01-15T01:13:35.774Z,1.46
2018-01-15T01:14:35.912Z,1.49
2018-01-15T01:15:35.824Z,1.46
2018-01-15T01:16:35.786Z,1.56
2018-01-15T01:17:35.806Z,1.47
2018-01-15T01:18:35.909Z,1.52
2018-01-15T01:19:35.981Z,1.44
2018-01-15T01:20:35.791Z,1.47
2018-01-15T01:21:35.868Z,1.42
2018-01-15T01:22:35.790Z,1.46
2018-01-15T01:23:35.797Z,1.47
2018-01-15T01:24:35.809Z,1.44
2018-01-15T01:25:35.814Z,1.46
2018-01-15T01:26:35.810Z,1.47
2018-01-15T01:27:35.819Z,1.42
2018-01-15T01:28:35.823Z,1.42
2018-01-15T01:29:35.825Z,1.49
2018-01-15T01:30:35.822Z,1.44
2018-01-15T01:31:35.833Z,1.50
2018-01-15T01:32:35.836Z,1.47
2018-01-15T01:33:35.834Z,1.50
2018-01-15T01:34:35.835Z,1.52
2018-01-15T01:35:35.853Z,1.54
2018-01-15T01:36:35.846Z,1.53
2018-01-15T01:37:35.852Z,1.57
2018-01-15T01:38:35.855Z,1.56
2018-01-15T01:39:35.862Z,1.54
2018-01-15T01:40:35.861Z,1.42
2018-01-15T01:41:35.864Z,1.50
2018-01-15T01:42:35.864Z,1.44
2018-01-15T01:43:35.874Z,1.57
2018-01-15T01:44:35.874Z,1.49
2018-01-15T01:45:35.877Z,1.60
2018-01-15T01:46:35.884Z,1.50
2018-01-15T01:47:35.884Z,1.52
2018-01-15T01:48:35.888Z,1.42
2018-01-15T01:49:35.899Z,1.60
2018-01-15T01:50:35.894Z,1.60
2018-01-15T01:51:35.899Z,1.43
2018-01-15T01:52:35.903Z,1.44
2018-01-15T01:53:35.951Z,1.60
2018-01-15T01:54:35.910Z,1.47
2018-01-15T01:55:35.906Z,1.42
2018-01-15T01:56:35.916Z,1.49
2018-01-15T01:57:35.916Z,1.54
2018-01-15T01:58:35.921Z,1.44
2018-01-15T01:59:35.923Z,1.44
2018-01-15T02:00:35.932Z,1.43
2018-01-15T02:01:35.932Z,1.60
2018-01-15T02:02:35.939Z,1.44
2018-01-15T02:03:35.935Z,1.49
2018-01-15T02:04:35.940Z,1.44
2018-01-15T02:05:35.945Z,1.54
2018-01-15T02:06:35.956Z,1.56
2018-01-15T02:07:35.951Z,1.46
2018-01-15T02:08:35.946Z,1.52
2018-01-15T02:09:35.959Z,1.44
2018-01-15T02:10:35.963Z,1.53
2018-01-15T02:11:35.956Z,1.43
2018-01-15T02:12:35.967Z,1.47
2018-01-15T02:13:35.964Z,1.50
2018-01-15T02:14:35.964Z,1.52
2018-01-15T02:15:35.981Z,1.52
2018-01-15T02:16:35.982Z,1.46
2018-01-15T02:17:35.986Z,1.46
2018-01-15T02:18:35.988Z,1.49
2018-01-15T02:19:35.995Z,1.46
2018-01-15T02:20:35.993Z,1.43
2018-01-15T02:21:35.997Z,1.52
2018-01-15T02:22:36.001Z,1.60
2018-01-15T02:23:35.999Z,1.50
2018-01-15T02:24:36.012Z,1.64
2018-01-15T02:25:36.014Z,1.65
2018-01-15T02:26:36.017Z,1.77
2018-01-15T02:27:36.023Z,1.68
2018-01-15T02:28:36.025Z,1.75
2018-01-15T02:29:36.026Z,1.68
2018-01-15T02:30:36.028Z,1.79
2018-01-15T02:31:36.033Z,1.81
2018-01-15T02:33:36.038Z,1.85
2018-01-15T02:34:36.040Z,1.79
2018-01-15T02:35:36.045Z,1.77
2018-01-15T02:36:36.050Z,1.90
2018-01-15T02:37:36.051Z,1.83
2018-01-15T02:38:36.054Z,1.85
2018-01-15T02:39:36.092Z,1.83
2018-01-15T02:40:36.065Z,1.88
2018-01-15T02:41:36.072Z,1.86
2018-01-15T02:42:36.070Z,1.83
2018-01-15T02:43:36.070Z,1.77
2018-01-15T02:44:36.078Z,1.75
2018-01-15T02:45:36.092Z,1.86
2018-01-15T02:46:36.082Z,1.74
2018-01-15T02:47:36.088Z,1.86
2018-01-15T02:48:36.095Z,1.86
2018-01-15T02:49:36.097Z,1.82
2018-01-15T02:50:36.107Z,1.79
2018-01-15T02:51:36.105Z,1.81
2018-01-15T02:52:36.105Z,1.82
2018-01-15T02:53:36.113Z,1.85
2018-01-15T02:54:36.102Z,1.85
2018-01-15T02:55:36.118Z,1.86
2018-01-15T02:56:36.123Z,1.79
2018-01-15T02:57:36.130Z,1.86
2018-01-15T02:58:36.131Z,1.83
2018-01-15T02:59:36.132Z,1.79
2018-01-15T03:00:36.139Z,1.86
2018-01-15T03:01:36.140Z,1.82
2018-01-15T03:02:36.142Z,1.75
2018-01-15T03:03:36.148Z,1.81
2018-01-15T03:04:36.158Z,1.89
2018-01-15T03:05:36.155Z,1.85
2018-01-15T03:06:36.159Z,1.89
2018-01-15T03:07:36.250Z,1.85
2018-01-15T03:08:36.168Z,1.89
2018-01-15T03:09:36.179Z,1.86
2018-01-15T03:10:36.170Z,1.92
2018-01-15T03:11:36.183Z,1.89
2018-01-15T03:12:36.178Z,1.90
2018-01-15T03:13:36.183Z,1.93
2018-01-15T03:14:36.191Z,1.89
2018-01-15T03:15:36.189Z,1.86
2018-01-15T03:16:36.195Z,1.89
2018-01-15T03:17:36.198Z,1.95
2018-01-15T03:18:36.198Z,2.00
2018-01-15T03:19:36.202Z,2.05
2018-01-15T03:20:36.210Z,2.07
2018-01-15T03:21:36.210Z,2.05
2018-01-15T03:22:36.479Z,2.08
2018-01-15T03:23:36.226Z,2.11
2018-01-15T03:24:36.221Z,2.20
2018-01-15T03:25:36.224Z,2.25
2018-01-15T03:26:36.226Z,2.22
2018-01-15T03:27:36.232Z,2.25
2018-01-15T03:28:36.239Z,2.26
2018-01-15T03:29:36.245Z,2.20
2018-01-15T03:30:36.242Z,2.25
2018-01-15T03:31:36.258Z,2.33
2018-01-15T03:32:36.255Z,2.26
2018-01-15T03:33:36.268Z,2.32
2018-01-15T03:34:36.264Z,2.30
2018-01-15T03:35:36.266Z,2.43
2018-01-15T03:36:36.272Z,2.45
2018-01-15T03:37:36.274Z,2.43
2018-01-15T03:38:36.283Z,2.41
2018-01-15T03:39:36.284Z,2.50
2018-01-15T03:40:36.287Z,2.51
2018-01-15T03:41:36.290Z,2.53
2018-01-15T03:42:36.291Z,2.51
2018-01-15T03:43:36.297Z,2.50
2018-01-15T03:44:36.296Z,2.55
2018-01-15T03:45:36.315Z,2.51
2018-01-15T03:46:36.306Z,2.41
2018-01-15T03:47:36.354Z,2.43
2018-01-15T03:48:36.419Z,2.50
2018-01-15T03:49:36.327Z,2.45
2018-01-15T03:50:36.325Z,2.43
2018-01-15T03:51:36.331Z,2.48
2018-01-15T03:52:36.336Z,2.50
2018-01-15T03:53:36.338Z,2.44
2018-01-15T03:54:36.339Z,2.44
2018-01-15T03:55:36.341Z,2.41
2018-01-15T03:56:36.346Z,2.38
2018-01-15T03:57:36.348Z,2.50
2018-01-15T03:58:36.359Z,2.51
2018-01-15T03:59:36.366Z,2.58
2018-01-15T04:00:36.365Z,2.41
2018-01-15T04:01:36.404Z,2.44
2018-01-15T04:02:36.375Z,2.37
2018-01-15T04:03:36.378Z,2.45
2018-01-15T04:04:36.374Z,2.37
2018-01-15T04:05:36.386Z,2.44
2018-01-15T04:06:36.390Z,2.41
2018-01-15T04:07:36.396Z,2.40
2018-01-15T04:08:36.404Z,2.37
2018-01-15T04:09:36.404Z,2.44
2018-01-15T04:10:36.411Z,2.50
2018-01-15T04:11:36.404Z,2.47
2018-01-15T04:12:36.510Z,2.55
2018-01-15T04:13:36.422Z,2.48
2018-01-15T04:14:36.415Z,2.50
2018-01-15T04:15:36.433Z,2.48
2018-01-15T04:16:36.429Z,2.47
2018-01-15T04:17:36.438Z,2.51
2018-01-15T04:18:36.441Z,2.51
2018-01-15T04:19:36.446Z,2.55
2018-01-15T04:20:36.450Z,2.45
2018-01-15T04:21:36.452Z,2.59
2018-01-15T04:22:36.457Z,2.58
2018-01-15T04:23:36.520Z,2.62
2018-01-15T04:24:37.284Z,2.69
2018-01-15T04:25:36.469Z,2.66
2018-01-15T04:26:36.473Z,2.66
2018-01-15T04:27:36.474Z,2.69
2018-01-15T04:28:36.477Z,2.66
2018-01-15T04:29:36.568Z,2.59
2018-01-15T04:30:36.492Z,2.66
2018-01-15T04:31:36.495Z,2.62
2018-01-15T04:32:36.501Z,2.66
2018-01-15T04:33:36.503Z,2.56
2018-01-15T04:34:36.503Z,2.62
2018-01-15T04:35:36.511Z,2.51
2018-01-15T04:36:36.516Z,2.55
2018-01-15T04:37:36.515Z,2.48
2018-01-15T04:38:36.525Z,2.55
2018-01-15T04:39:36.524Z,2.56
2018-01-15T04:40:36.535Z,2.51
2018-01-15T04:41:36.533Z,2.53
2018-01-15T04:42:36.581Z,2.56
2018-01-15T04:43:36.549Z,2.68
2018-01-15T04:44:36.550Z,2.69
2018-01-15T04:45:36.549Z,2.63
2018-01-15T04:46:36.555Z,2.63
2018-01-15T04:47:36.562Z,2.69
2018-01-15T04:48:36.565Z,2.74
2018-01-15T04:49:36.567Z,2.74
2018-01-15T04:50:36.574Z,2.73
2018-01-15T04:51:36.582Z,2.80
2018-01-15T04:52:36.588Z,2.81
2018-01-15T04:53:36.588Z,2.86
2018-01-15T04:54:36.592Z,2.87
2018-01-15T04:55:36.606Z,2.87
2018-01-15T04:56:36.595Z,2.87
2018-01-15T04:57:36.604Z,2.84
2018-01-15T04:58:36.609Z,2.90
2018-01-15T04:59:36.610Z,2.90
2018-01-15T05:00:36.618Z,2.94
2018-01-15T05:01:36.619Z,2.86
2018-01-15T05:02:36.631Z,2.92
2018-01-15T05:03:36.628Z,2.87
2018-01-15T05:04:36.635Z,2.71
2018-01-15T05:05:36.635Z,2.71
2018-01-15T05:06:36.643Z,2.71
2018-01-15T05:07:36.643Z,2.74
2018-01-15T05:08:36.651Z,2.83
2018-01-15T05:09:36.654Z,2.86
2018-01-15T05:10:36.660Z,2.83
2018-01-15T05:11:36.667Z,2.94
2018-01-15T05:12:36.670Z,2.99
2018-01-15T05:13:36.678Z,2.98
2018-01-15T05:14:36.679Z,3.02
2018-01-15T05:15:36.690Z,3.02
2018-01-15T05:16:36.686Z,3.04
2018-01-15T05:17:36.691Z,2.99
2018-01-15T05:18:36.696Z,2.94
2018-01-15T05:19:36.699Z,2.90
2018-01-15T05:20:36.706Z,2.95
2018-01-15T05:21:36.707Z,2.95
2018-01-15T05:22:36.715Z,3.08
2018-01-15T05:23:36.723Z,3.16
2018-01-15T05:24:36.720Z,3.15
2018-01-15T05:25:36.730Z,3.12
2018-01-15T05:26:36.729Z,3.12
2018-01-15T05:27:36.737Z,3.17
2018-01-15T05:28:36.806Z,3.19
2018-01-15T05:29:36.744Z,3.22
2018-01-15T05:30:36.750Z,3.23
2018-01-15T05:31:36.750Z,3.34
2018-01-15T05:32:36.755Z,3.31
2018-01-15T05:33:36.766Z,3.31
2018-01-15T05:34:36.765Z,3.37
2018-01-15T05:35:36.769Z,3.31
2018-01-15T05:36:36.787Z,3.25
2018-01-15T05:37:36.780Z,3.16
2018-01-15T05:38:36.783Z,3.28
2018-01-15T05:39:36.792Z,3.26
2018-01-15T05:40:36.793Z,3.30
2018-01-15T05:41:36.802Z,3.34
2018-01-15T05:42:36.799Z,3.41
2018-01-15T05:43:36.806Z,3.37
2018-01-15T05:44:36.814Z,3.50
2018-01-15T05:45:36.814Z,3.45
2018-01-15T05:46:36.830Z,3.37
2018-01-15T05:47:36.821Z,3.37
2018-01-15T05:48:36.827Z,3.34
2018-01-15T05:49:36.834Z,3.34
2018-01-15T05:50:36.848Z,3.42
2018-01-15T05:51:36.846Z,3.34
2018-01-15T05:52:36.849Z,3.37
2018-01-15T05:53:36.856Z,3.46
2018-01-15T05:54:36.861Z,3.46
2018-01-15T05:55:36.860Z,3.46
2018-01-15T05:56:36.866Z,3.46
2018-01-15T05:57:36.870Z,3.53
2018-01-15T05:58:36.918Z,3.56
2018-01-15T05:59:36.884Z,3.46
2018-01-15T06:00:36.887Z,3.52
2018-01-15T06:01:36.892Z,3.50
2018-01-15T06:02:36.885Z,3.50
2018-01-15T06:03:36.902Z,3.59
2018-01-15T06:04:36.908Z,3.60
2018-01-15T06:05:36.908Z,3.62
2018-01-15T06:06:36.911Z,3.70
2018-01-15T06:07:36.914Z,3.63
2018-01-15T06:08:36.923Z,3.54
2018-01-15T06:09:36.926Z,3.62
2018-01-15T06:10:36.936Z,3.62
2018-01-15T06:11:36.933Z,3.62
2018-01-15T06:12:36.940Z,3.59
2018-01-15T06:13:36.941Z,3.67
2018-01-15T06:14:36.945Z,3.63
2018-01-15T06:15:36.958Z,3.59
2018-01-15T06:16:36.960Z,3.64
2018-01-15T06:17:36.966Z,3.68
2018-01-15T06:18:36.966Z,3.67
2018-01-15T06:19:36.977Z,3.62
2018-01-15T06:20:36.982Z,3.71
2018-01-15T06:21:36.987Z,3.80
2018-01-15T06:22:36.987Z,3.78
2018-01-15T06:23:36.994Z,3.88
2018-01-15T06:24:36.996Z,3.89
2018-01-15T06:25:37.005Z,3.82
2018-01-15T06:26:37.004Z,3.88
2018-01-15T06:27:37.024Z,3.88
2018-01-15T06:28:37.015Z,3.88
2018-01-15T06:29:37.024Z,3.90
2018-01-15T06:30:37.025Z,3.95
2018-01-15T06:31:37.031Z,3.86
2018-01-15T06:32:37.042Z,3.92
2018-01-15T06:33:37.045Z,3.98
2018-01-15T06:34:37.046Z,3.93
2018-01-15T06:35:37.052Z,4.06
2018-01-15T06:36:37.057Z,3.92
2018-01-15T06:37:37.152Z,4.00
2018-01-15T06:38:37.062Z,3.98
2018-01-15T06:39:37.065Z,3.98
2018-01-15T06:40:37.077Z,3.99
2018-01-15T06:41:37.079Z,4.02
2018-01-15T06:42:37.090Z,4.00
2018-01-15T06:43:37.085Z,4.00
2018-01-15T06:44:37.101Z,4.04
2018-01-15T06:45:37.110Z,4.02
2018-01-15T06:46:37.103Z,4.04
2018-01-15T06:47:37.113Z,4.08
2018-01-15T06:48:37.114Z,4.10
2018-01-15T06:49:37.124Z,4.10
2018-01-15T06:50:37.128Z,4.10
2018-01-15T06:51:37.134Z,4.06
2018-01-15T06:52:37.138Z,4.11
2018-01-15T06:53:37.146Z,4.14
2018-01-15T06:54:37.148Z,4.10
2018-01-15T06:55:37.154Z,4.06
2018-01-15T06:56:37.159Z,4.04
2018-01-15T06:57:37.168Z,4.02
2018-01-15T06:58:37.168Z,4.02
2018-01-15T06:59:37.178Z,3.99
2018-01-15T07:00:37.178Z,3.99
2018-01-15T07:01:37.183Z,4.00
2018-01-15T07:02:37.192Z,4.00
2018-01-15T07:03:37.194Z,4.02
2018-01-15T07:04:37.198Z,3.99
2018-01-15T07:05:37.306Z,3.99
2018-01-15T07:06:37.206Z,4.08
2018-01-15T07:07:37.217Z,4.10
2018-01-15T07:08:37.225Z,4.07
2018-01-15T07:09:37.294Z,4.14
2018-01-15T07:10:37.233Z,4.17
2018-01-15T07:11:37.243Z,4.11
2018-01-15T07:12:37.243Z,4.14
2018-01-15T07:13:37.245Z,4.21
2018-01-15T07:14:37.268Z,4.20
2018-01-15T07:15:37.258Z,4.17
2018-01-15T07:16:37.262Z,4.25
2018-01-15T07:17:37.269Z,4.16
2018-01-15T07:18:37.279Z,4.25
2018-01-15T07:19:37.284Z,4.26
2018-01-15T07:20:37.281Z,4.14
2018-01-15T07:21:37.289Z,4.24
2018-01-15T07:22:37.303Z,4.24
2018-01-15T07:23:37.300Z,4.18
2018-01-15T07:24:37.309Z,4.21
2018-01-15T07:25:37.309Z,4.16
2018-01-15T07:26:37.321Z,4.13
2018-01-15T07:27:37.328Z,4.17
2018-01-15T07:28:37.320Z,4.11
2018-01-15T07:29:37.333Z,4.16
2018-01-15T07:30:37.336Z,4.08
2018-01-15T07:31:37.338Z,4.17
2018-01-15T07:32:37.349Z,4.11
2018-01-15T07:33:37.355Z,4.13
2018-01-15T07:34:37.360Z,4.17
2018-01-15T07:35:37.364Z,4.13
2018-01-15T07:36:37.373Z,4.18
2018-01-15T07:37:37.375Z,4.25
2018-01-15T07:38:37.378Z,4.17
2018-01-15T07:39:37.383Z,4.21
2018-01-15T07:40:37.396Z,4.34
2018-01-15T07:41:37.439Z,4.32
2018-01-15T07:42:37.397Z,4.31
2018-01-15T07:43:37.404Z,4.28
2018-01-15T07:44:37.412Z,4.29
2018-01-15T07:45:37.414Z,4.32
2018-01-15T07:46:37.420Z,4.25
2018-01-15T07:47:37.423Z,4.36
2018-01-15T07:48:37.429Z,4.26
2018-01-15T07:49:37.437Z,4.32
2018-01-15T07:50:37.444Z,4.31
2018-01-15T07:51:37.440Z,4.26
2018-01-15T07:52:37.452Z,4.25
2018-01-15T07:53:37.455Z,4.31
2018-01-15T07:54:37.455Z,4.31
2018-01-15T07:55:37.463Z,4.28
2018-01-15T07:56:37.471Z,4.26
2018-01-15T07:57:37.478Z,4.24
2018-01-15T07:58:37.485Z,4.32
2018-01-15T07:59:37.479Z,4.29
2018-01-15T08:00:37.498Z,4.39
2018-01-15T08:01:37.498Z,4.35
2018-01-15T08:02:37.506Z,4.39
2018-01-15T08:03:37.506Z,4.44
2018-01-15T08:04:37.518Z,4.39
2018-01-15T08:05:37.523Z,4.42
2018-01-15T08:06:37.526Z,4.46
2018-01-15T08:07:37.530Z,4.46
2018-01-15T08:08:37.537Z,4.43
2018-01-15T08:09:37.549Z,4.46
2018-01-15T08:10:37.546Z,4.49
2018-01-15T08:11:37.552Z,4.64
2018-01-15T08:12:37.555Z,4.54
2018-01-15T08:13:37.566Z,4.54
2018-01-15T08:14:37.566Z,4.56
2018-01-15T08:15:37.569Z,4.62
2018-01-15T08:16:37.580Z,4.71
2018-01-15T08:17:37.585Z,4.62
2018-01-15T08:18:37.590Z,4.69
2018-01-15T08:19:37.594Z,4.74
2018-01-15T08:20:37.612Z,4.71
2018-01-15T08:21:37.607Z,4.69
2018-01-15T08:22:37.627Z,4.75
2018-01-15T08:23:37.619Z,4.79
2018-01-15T08:24:37.623Z,4.86
2018-01-15T08:25:37.627Z,4.80
2018-01-15T08:26:37.632Z,4.83
2018-01-15T08:27:37.643Z,4.79
2018-01-15T08:28:37.650Z,4.72
2018-01-15T08:29:37.649Z,4.71
2018-01-15T08:30:37.656Z,4.74
2018-01-15T08:31:37.665Z,4.77
2018-01-15T08:32:37.699Z,4.88
2018-01-15T08:33:37.668Z,4.91
2018-01-15T08:34:37.681Z,4.88
2018-01-15T08:35:37.681Z,4.88
2018-01-15T08:36:37.737Z,4.87
2018-01-15T08:37:37.691Z,4.83
2018-01-15T08:38:37.698Z,4.90
2018-01-15T08:39:37.720Z,4.90
2018-01-15T08:40:37.723Z,4.87
2018-01-15T08:41:37.705Z,4.94
2018-01-15T08:42:37.723Z,4.91
2018-01-15T08:43:37.728Z,4.91
2018-01-15T08:44:37.731Z,4.91
2018-01-15T08:45:37.740Z,4.90
2018-01-15T08:46:37.741Z,4.88
2018-01-15T08:47:37.741Z,4.86
2018-01-15T08:48:37.754Z,4.96
2018-01-15T08:49:37.759Z,4.93
2018-01-15T08:50:37.768Z,4.86
2018-01-15T08:51:37.768Z,4.91
2018-01-15T08:52:37.778Z,5.02
2018-01-15T08:53:37.789Z,4.97
2018-01-15T08:54:37.790Z,5.06
2018-01-15T08:55:37.786Z,5.09
2018-01-15T08:56:37.810Z,5.19
2018-01-15T08:57:37.804Z,5.12
2018-01-15T08:58:37.812Z,5.17
2018-01-15T08:59:37.816Z,5.15
2018-01-15T09:00:37.847Z,5.19
2018-01-15T09:01:37.831Z,5.19
2018-01-15T09:02:37.862Z,5.19
2018-01-15T09:03:37.885Z,5.23
2018-01-15T09:04:37.850Z,5.20
2018-01-15T09:05:37.849Z,5.23
2018-01-15T09:06:37.855Z,5.33
2018-01-15T09:07:37.858Z,5.35
2018-01-15T09:08:37.872Z,5.35
2018-01-15T09:09:37.874Z,5.30
2018-01-15T09:10:37.885Z,5.38
2018-01-15T09:11:37.885Z,5.33
2018-01-15T09:12:37.893Z,5.40
2018-01-15T09:13:37.899Z,5.33
2018-01-15T09:14:37.891Z,5.30
2018-01-15T09:15:37.911Z,5.42
2018-01-15T09:16:37.916Z,5.44
2018-01-15T09:17:37.930Z,5.44
2018-01-15T09:18:37.918Z,5.48
2018-01-15T09:19:37.930Z,5.52
2018-01-15T09:20:37.938Z,5.49
2018-01-15T09:21:37.944Z,5.51
2018-01-15T09:22:37.946Z,5.51
2018-01-15T09:23:37.973Z,5.51
2018-01-15T09:24:37.959Z,5.59
2018-01-15T09:25:37.964Z,5.63
2018-01-15T09:26:37.979Z,5.63
2018-01-15T09:27:37.971Z,5.65
2018-01-15T09:28:37.978Z,5.63
2018-01-15T09:29:37.990Z,5.74
2018-01-15T09:30:37.998Z,5.63
2018-01-15T09:31:38.020Z,5.70
2018-01-15T09:32:38.004Z,5.73
2018-01-15T09:33:38.016Z,5.70
2018-01-15T09:34:38.034Z,5.70
2018-01-15T09:35:38.022Z,5.78
2018-01-15T09:36:38.028Z,5.90
2018-01-15T09:37:38.035Z,5.80
2018-01-15T09:38:38.037Z,5.90
2018-01-15T09:39:38.056Z,5.83
2018-01-15T09:40:38.048Z,5.87
2018-01-15T09:41:38.068Z,5.83
2018-01-15T09:42:38.060Z,5.85
2018-01-15T09:43:38.070Z,5.85
2018-01-15T09:44:38.071Z,5.78
2018-01-15T09:45:38.079Z,5.88
2018-01-15T09:46:38.081Z,5.84
2018-01-15T09:47:38.088Z,5.92
2018-01-15T09:48:38.096Z,5.87
2018-01-15T09:49:38.161Z,5.99
2018-01-15T09:50:38.108Z,5.96
2018-01-15T09:51:38.216Z,5.98
2018-01-15T09:52:38.124Z,5.99
2018-01-15T09:53:38.125Z,6.01
2018-01-15T09:54:38.129Z,5.98
2018-01-15T09:55:38.137Z,6.03
2018-01-15T09:56:38.149Z,6.06
2018-01-15T09:57:38.153Z,6.10
2018-01-15T09:58:38.158Z,6.11
2018-01-15T09:59:38.166Z,6.06
2018-01-15T10:00:38.171Z,6.14
2018-01-15T10:01:38.182Z,6.16
2018-01-15T10:02:38.206Z,6.13
2018-01-15T10:03:38.190Z,6.27
2018-01-15T10:04:38.240Z,6.19
2018-01-15T10:05:38.230Z,6.16
2018-01-15T10:06:38.211Z,6.21
2018-01-15T10:07:38.214Z,6.25
2018-01-15T10:08:38.227Z,6.33
2018-01-15T10:09:38.227Z,6.39
2018-01-15T10:10:38.230Z,6.30
2018-01-15T10:11:38.236Z,6.45
2018-01-15T10:12:38.255Z,6.42
2018-01-15T10:13:38.262Z,6.36
2018-01-15T10:14:38.372Z,6.39
2018-01-15T10:15:38.272Z,6.40
2018-01-15T10:16:38.277Z,6.43
2018-01-15T10:17:38.280Z,6.45
2018-01-15T10:18:38.284Z,6.45
2018-01-15T10:19:38.284Z,6.39
2018-01-15T10:20:38.302Z,6.45
2018-01-15T10:21:38.307Z,6.39
2018-01-15T10:22:38.315Z,6.38
2018-01-15T10:23:38.319Z,6.39
2018-01-15T10:24:38.324Z,6.33
2018-01-15T10:25:38.334Z,6.45
2018-01-15T10:26:38.334Z,6.51
2018-01-15T10:27:38.345Z,6.51
2018-01-15T10:28:38.350Z,6.48
2018-01-15T10:29:38.355Z,6.51
2018-01-15T10:30:38.360Z,6.51
2018-01-15T10:31:38.369Z,6.53
2018-01-15T10:32:38.478Z,6.54
2018-01-15T10:33:38.551Z,6.50
2018-01-15T10:34:38.395Z,6.53
2018-01-15T10:35:38.399Z,6.55
2018-01-15T10:36:38.404Z,6.50
2018-01-15T10:37:38.411Z,6.54
2018-01-15T10:38:38.415Z,6.65
2018-01-15T10:39:38.428Z,6.50
2018-01-15T10:40:38.434Z,6.63
2018-01-15T10:41:38.434Z,6.69
2018-01-15T10:42:38.440Z,6.69
2018-01-15T10:43:38.446Z,6.64
2018-01-15T10:44:38.453Z,6.63
2018-01-15T10:45:38.463Z,6.73
2018-01-15T10:46:38.463Z,6.71
2018-01-15T10:47:38.465Z,6.72
2018-01-15T10:48:38.482Z,6.72
2018-01-15T10:49:38.484Z,6.69
2018-01-15T10:50:38.491Z,6.75
2018-01-15T10:51:38.505Z,6.73
2018-01-15T10:52:38.506Z,6.72
2018-01-15T10:53:38.511Z,6.79
2018-01-15T10:54:38.519Z,6.82
2018-01-15T10:55:38.516Z,6.87
2018-01-15T10:56:38.538Z,6.87
2018-01-15T10:57:38.540Z,6.99
2018-01-15T10:58:38.548Z,6.97
2018-01-15T10:59:38.553Z,7.05
2018-01-15T11:00:38.560Z,6.99
2018-01-15T11:01:38.568Z,6.97
2018-01-15T11:02:38.567Z,6.99
2018-01-15T11:03:38.574Z,6.96
2018-01-15T11:04:38.589Z,7.12
2018-01-15T11:05:38.587Z,7.00
2018-01-15T11:06:38.602Z,7.08
2018-01-15T11:07:38.606Z,7.08
2018-01-15T11:08:38.619Z,7.14
2018-01-15T11:09:38.616Z,7.11
2018-01-15T11:10:38.635Z,7.14
2018-01-15T11:11:38.620Z,7.11
2018-01-15T11:12:38.637Z,7.19
2018-01-15T11:13:39.312Z,7.16
2018-01-15T11:14:38.663Z,7.29
2018-01-15T11:15:38.661Z,7.26
2018-01-15T11:16:38.675Z,7.33
2018-01-15T11:17:38.678Z,7.30
2018-01-15T11:18:38.680Z,7.33
2018-01-15T11:19:38.686Z,7.26
2018-01-15T11:20:38.687Z,7.32
2018-01-15T11:21:38.709Z,7.39
2018-01-15T11:22:38.707Z,7.34
2018-01-15T11:23:38.767Z,7.36
2018-01-15T11:24:38.767Z,7.54
2018-01-15T11:25:38.742Z,7.41
2018-01-15T11:26:38.742Z,7.50
2018-01-15T11:27:38.762Z,7.52
2018-01-15T11:28:38.755Z,7.57
2018-01-15T11:29:38.764Z,7.63
2018-01-15T11:30:38.782Z,7.69
2018-01-15T11:31:38.786Z,7.60
2018-01-15T11:32:38.797Z,7.69
2018-01-15T11:33:38.785Z,7.70
2018-01-15T11:34:38.801Z,7.67
2018-01-15T11:35:38.797Z,7.66
2018-01-15T11:36:38.797Z,7.67
2018-01-15T11:37:38.812Z,7.71
2018-01-15T11:39:38.827Z,7.69
2018-01-15T11:40:38.836Z,7.63
2018-01-15T11:41:38.841Z,7.58
2018-01-15T11:42:38.881Z,7.67
2018-01-15T11:43:38.850Z,7.69
2018-01-15T11:44:38.871Z,7.70
2018-01-15T11:45:38.865Z,7.62
2018-01-15T11:46:38.882Z,7.63
2018-01-15T11:47:38.887Z,7.67
2018-01-15T11:48:38.890Z,7.67
2018-01-15T11:49:38.896Z,7.67
2018-01-15T11:50:38.911Z,7.63
2018-01-15T11:51:38.910Z,7.71
2018-01-15T11:52:38.916Z,7.70
2018-01-15T11:53:38.944Z,7.73
2018-01-15T11:54:38.937Z,7.84
2018-01-15T11:55:38.944Z,7.84
2018-01-15T11:57:38.955Z,7.73
2018-01-15T11:58:38.968Z,7.85
2018-01-15T11:59:38.974Z,7.76
2018-01-15T12:00:38.977Z,7.77
2018-01-15T12:01:38.983Z,7.84
2018-01-15T12:02:38.989Z,7.85
2018-01-15T12:03:39.002Z,7.86
2018-01-15T12:04:39.001Z,7.88
2018-01-15T12:05:39.013Z,7.86
2018-01-15T12:06:39.018Z,7.82
2018-01-15T12:07:39.033Z,7.88
2018-01-15T12:08:39.035Z,7.89
2018-01-15T12:09:39.048Z,7.88
2018-01-15T12:10:39.046Z,7.92
2018-01-15T12:11:39.087Z,7.89
2018-01-15T12:12:39.064Z,7.95
2018-01-15T12:13:39.071Z,7.91
2018-01-15T12:14:39.076Z,7.85
2018-01-15T12:15:39.087Z,7.89
2018-01-15T12:16:39.094Z,7.92
2018-01-15T12:17:39.096Z,7.88
2018-01-15T12:18:39.108Z,7.88
2018-01-15T12:19:39.173Z,7.86
2018-01-15T12:20:39.134Z,7.81
2018-01-15T12:21:39.122Z,7.82
2018-01-15T12:22:39.138Z,7.92
2018-01-15T12:23:39.141Z,7.70
2018-01-15T12:24:39.819Z,7.84
2018-01-15T12:25:39.154Z,7.82
2018-01-15T12:26:39.153Z,7.85
2018-01-15T12:27:39.167Z,7.86
2018-01-15T12:28:39.185Z,7.85
2018-01-15T12:29:39.182Z,7.92
2018-01-15T12:30:39.188Z,7.94
2018-01-15T12:31:39.190Z,7.92
2018-01-15T12:32:39.205Z,7.91
2018-01-15T12:33:39.212Z,7.92
2018-01-15T12:34:39.295Z,7.86
2018-01-15T12:35:39.221Z,7.88
2018-01-15T12:36:39.549Z,7.94
2018-01-15T12:37:39.261Z,7.86
2018-01-15T12:38:39.243Z,7.94
2018-01-15T12:39:39.248Z,7.95
2018-01-15T12:40:39.261Z,7.92
2018-01-15T12:41:39.257Z,7.99
2018-01-15T12:42:39.276Z,8.00
2018-01-15T12:43:39.281Z,7.94
2018-01-15T12:44:39.277Z,8.00
2018-01-15T12:45:39.304Z,7.89
2018-01-15T12:46:39.301Z,7.89
2018-01-15T12:47:39.307Z,7.92
2018-01-15T12:48:39.312Z,7.94
2018-01-15T12:49:39.320Z,8.06
2018-01-15T12:50:39.329Z,7.96
2018-01-15T12:51:39.331Z,7.92
2018-01-15T12:52:39.345Z,7.92
2018-01-15T12:53:39.367Z,7.89
2018-01-15T12:54:39.356Z,7.99
2018-01-15T12:55:39.370Z,7.86
2018-01-15T12:56:39.370Z,8.02
2018-01-15T12:57:39.383Z,7.89
2018-01-15T12:58:39.383Z,7.88
2018-01-15T12:59:39.392Z,8.03
2018-01-15T13:00:39.398Z,8.06
2018-01-15T13:01:39.409Z,8.00
2018-01-15T13:02:39.445Z,7.88
2018-01-15T13:04:39.431Z,7.95
2018-01-15T13:05:39.437Z,7.94
2018-01-15T13:06:39.442Z,8.00
2018-01-15T13:07:39.449Z,7.92
2018-01-15T13:08:39.459Z,7.91
2018-01-15T13:09:39.463Z,7.99
2018-01-15T13:10:39.473Z,7.92
2018-01-15T13:11:39.491Z,7.91
2018-01-15T13:12:39.548Z,7.96
2018-01-15T13:13:39.494Z,7.86
2018-01-15T13:14:39.506Z,7.84
2018-01-15T13:15:39.507Z,7.88
2018-01-15T13:16:39.519Z,7.88
2018-01-15T13:17:39.519Z,7.85
2018-01-15T13:18:39.523Z,7.94
2018-01-15T13:19:39.529Z,7.95
2018-01-15T13:20:39.538Z,7.88
2018-01-15T13:21:39.542Z,7.92
2018-01-15T13:22:39.548Z,8.02